Time;durP1;ratioP1;P1;durP2;ratioP2;P2;SDS_P1;SDS_P2;PMS_P1;PMS_P2;Temp;Humidity;BMP_temperature;BMP_pressure;BME280_temperature;BME280_humidity;BME280_pressure;Samples;Min_cycle;Max_cycle;Signal;HPM_P1;HPM_P2
2022/10/26 00:02:30;;;;;;;6.60;1.88;;;20.90;89.40;;;;;;10511427;28;20082;-47
2022/10/26 00:07:32;;;;;;;3.22;1.33;;;20.90;89.40;;;;;;10504634;28;20445;-49
2022/10/26 00:12:35;;;;;;;6.15;1.33;;;20.90;89.30;;;;;;10512212;28;20091;-41
2022/10/26 00:17:37;;;;;;;2.55;1.30;;;23.20;90.30;;;;;;10536573;28;20074;-48
2022/10/26 00:22:40;;;;;;;3.40;1.52;;;20.80;89.40;;;;;;10523719;28;20082;-40
2022/10/26 00:27:43;;;;;;;2.28;1.23;;;20.80;89.20;;;;;;10539335;28;20739;-46
2022/10/26 00:32:45;;;;;;;3.83;1.58;;;20.80;89.30;;;;;;10537161;28;20139;-48
2022/10/26 00:37:47;;;;;;;1.83;0.98;;;20.10;89.00;;;;;;10533368;28;20550;-44
2022/10/26 00:42:50;;;;;;;3.20;1.30;;;20.80;89.40;;;;;;10527817;28;20645;-49
2022/10/26 00:47:56;;;;;;;3.53;1.27;;;20.80;89.10;;;;;;10528526;28;20079;-47
2022/10/26 00:53:02;;;;;;;2.67;1.58;;;20.80;89.30;;;;;;10533282;28;20087;-45
2022/10/26 00:58:08;;;;;;;1.40;1.00;;;23.00;90.30;;;;;;10534641;28;20076;-47
2022/10/26 01:03:11;;;;;;;1.92;1.08;;;20.70;89.10;;;;;;10523101;28;20113;-40
2022/10/26 01:08:15;;;;;;;3.05;1.15;;;20.80;89.00;;;;;;10530280;28;20036;-44
2022/10/26 01:13:19;;;;;;;1.75;0.90;;;20.20;88.80;;;;;;10528414;28;20139;-47
2022/10/26 01:18:30;;;;;;;3.30;1.20;;;20.70;89.20;;;;;;10526754;28;20105;-46
2022/10/26 01:23:38;;;;;;;3.03;1.05;;;20.70;89.00;;;;;;10527122;28;20131;-43
2022/10/26 01:29:03;;;;;;;1.83;1.13;;;20.70;88.90;;;;;;10505369;28;20052;-47
2022/10/26 01:34:12;;;;;;;1.85;1.00;;;20.70;89.10;;;;;;10532085;28;20136;-44
2022/10/26 01:39:18;;;;;;;2.70;1.10;;;20.70;89.00;;;;;;10523606;28;20063;-44
2022/10/26 01:44:25;;;;;;;2.35;1.20;;;20.70;89.00;;;;;;10521161;28;20120;-44
2022/10/26 01:49:32;;;;;;;5.45;1.27;;;20.40;88.70;;;;;;10514137;28;20082;-46
2022/10/26 01:54:35;;;;;;;4.78;1.10;;;20.70;88.80;;;;;;10510748;28;20059;-47
2022/10/26 01:59:48;;;;;;;1.73;1.10;;;20.70;89.00;;;;;;10530742;28;20044;-48
2022/10/26 02:05:00;;;;;;;;;;;20.60;89.50;;;;;;10519022;28;20071;-45
2022/10/26 02:10:10;;;;;;;2.60;1.00;;;21.90;89.60;;;;;;10526274;28;19966;-42
2022/10/26 02:15:17;;;;;;;1.70;1.17;;;20.60;89.00;;;;;;10525148;28;20121;-46
2022/10/26 02:20:25;;;;;;;1.48;1.15;;;20.60;88.80;;;;;;10531460;28;20553;-47
2022/10/26 02:25:31;;;;;;;2.13;1.00;;;20.60;88.90;;;;;;10520418;28;20048;-46
2022/10/26 02:30:34;;;;;;;2.13;0.93;;;20.60;88.90;;;;;;10514925;28;20041;-46
2022/10/26 02:35:39;;;;;;;1.67;1.13;;;20.60;88.90;;;;;;10521337;28;20055;-47
2022/10/26 02:40:42;;;;;;;1.15;0.85;;;20.30;88.80;;;;;;10513310;28;20526;-46
2022/10/26 02:45:48;;;;;;;2.22;0.80;;;20.60;88.80;;;;;;10525865;28;20044;-40
2022/10/26 02:51:00;;;;;;;2.17;1.20;;;21.70;89.60;;;;;;10524726;28;20080;-47
2022/10/26 02:56:08;;;;;;;1.92;0.63;;;21.20;89.30;;;;;;10510583;28;20048;-47
2022/10/26 03:01:10;;;;;;;1.92;0.95;;;20.50;88.90;;;;;;10518132;28;20049;-47
2022/10/26 03:06:20;;;;;;;2.15;1.10;;;20.50;88.80;;;;;;10526865;28;20131;-48
2022/10/26 03:11:22;;;;;;;1.83;0.90;;;20.50;89.00;;;;;;10512356;28;20074;-49
2022/10/26 03:16:24;;;;;;;2.50;1.10;;;20.50;88.90;;;;;;10541813;28;20126;-46
2022/10/26 03:21:28;;;;;;;1.40;0.88;;;20.50;88.90;;;;;;10533744;28;20069;-44
2022/10/26 03:26:30;;;;;;;2.38;0.82;;;20.50;89.00;;;;;;10527011;28;20110;-46
2022/10/26 03:31:32;;;;;;;2.30;0.93;;;20.50;89.70;;;;;;10510847;28;20076;-44
2022/10/26 03:36:35;;;;;;;2.20;0.93;;;19.70;88.60;;;;;;10509966;28;20044;-47
2022/10/26 03:41:37;;;;;;;2.45;0.82;;;20.50;89.00;;;;;;10516013;28;20076;-44
2022/10/26 03:46:38;;;;;;;3.30;0.90;;;19.40;88.40;;;;;;10507369;28;20068;-47
2022/10/26 03:51:42;;;;;;;1.08;0.63;;;20.50;89.10;;;;;;10521555;28;20058;-46
2022/10/26 03:56:43;;;;;;;0.90;0.80;;;20.50;89.00;;;;;;10522973;28;20098;-44
2022/10/26 04:01:45;;;;;;;2.45;1.02;;;20.50;89.10;;;;;;10526047;28;20059;-51
2022/10/26 04:06:48;;;;;;;3.15;1.30;;;20.50;89.00;;;;;;10534524;28;20192;-47
2022/10/26 04:11:50;;;;;;;1.90;0.82;;;20.50;88.90;;;;;;10532126;28;20080;-49
2022/10/26 04:16:52;;;;;;;1.40;0.88;;;20.50;89.10;;;;;;10536189;28;20181;-49
2022/10/26 04:21:55;;;;;;;2.85;1.02;;;20.40;88.90;;;;;;10525875;28;20060;-45
2022/10/26 04:26:57;;;;;;;1.75;1.00;;;20.50;89.00;;;;;;10520170;28;20182;-44
2022/10/26 04:31:59;;;;;;;3.58;1.02;;;20.40;88.90;;;;;;10529828;28;20052;-46
2022/10/26 04:37:02;;;;;;;2.10;1.10;;;20.50;88.90;;;;;;10533955;28;20056;-49
2022/10/26 04:42:04;;;;;;;2.25;0.82;;;20.50;89.10;;;;;;10525690;28;20157;-43
2022/10/26 04:47:06;;;;;;;2.05;0.90;;;20.50;89.00;;;;;;10532457;28;20051;-47
2022/10/26 04:52:09;;;;;;;3.40;1.63;;;20.50;88.80;;;;;;10538127;28;20090;-46
2022/10/26 04:57:11;;;;;;;1.60;1.10;;;20.30;88.70;;;;;;10524502;28;20135;-44
2022/10/26 05:02:13;;;;;;;1.85;0.93;;;21.50;89.10;;;;;;10532847;28;20462;-43
2022/10/26 05:07:16;;;;;;;0.98;0.70;;;21.20;89.10;;;;;;10526880;28;20492;-44
2022/10/26 05:12:18;;;;;;;2.40;1.10;;;19.50;88.20;;;;;;10534501;28;20076;-48
2022/10/26 05:17:20;;;;;;;1.77;0.90;;;20.40;88.70;;;;;;10527696;28;20378;-45
2022/10/26 05:22:23;;;;;;;0.82;0.82;;;20.50;88.70;;;;;;10528097;28;20044;-48
2022/10/26 05:27:25;;;;;;;2.17;0.90;;;20.40;88.80;;;;;;10527637;28;20072;-43
2022/10/26 05:32:27;;;;;;;3.67;0.88;;;20.40;88.50;;;;;;10527953;28;20139;-47
2022/10/26 05:37:30;;;;;;;1.33;0.98;;;20.40;88.50;;;;;;10521276;28;20136;-46
2022/10/26 05:42:32;;;;;;;1.80;0.88;;;20.00;88.50;;;;;;10523625;28;20066;-44
2022/10/26 05:47:38;;;;;;;1.13;0.80;;;20.40;88.70;;;;;;10519008;28;20127;-43
2022/10/26 05:52:42;;;;;;;1.65;0.82;;;20.40;88.70;;;;;;10532103;28;20153;-49
2022/10/26 05:57:44;;;;;;;2.28;0.90;;;20.30;88.70;;;;;;10528420;28;20056;-47
2022/10/26 06:03:03;;;;;;;0.80;0.70;;;20.30;88.70;;;;;;10524533;28;20036;-46
2022/10/26 06:08:10;;;;;;;1.50;0.80;;;20.50;88.90;;;;;;10533549;28;20051;-45
2022/10/26 06:13:13;;;;;;;2.08;0.90;;;20.40;88.60;;;;;;10527761;28;20131;-46
2022/10/26 06:18:23;;;;;;;1.50;0.75;;;20.40;88.70;;;;;;10536190;28;20105;-46
2022/10/26 06:23:40;;;;;;;2.17;1.10;;;20.00;89.10;;;;;;10531047;28;20135;-46
2022/10/26 06:28:47;;;;;;;1.90;1.02;;;21.40;89.10;;;;;;10514718;28;20443;-46
2022/10/26 06:33:49;;;;;;;1.90;0.90;;;20.40;88.60;;;;;;10517881;28;20071;-49
2022/10/26 06:38:55;;;;;;;1.80;1.00;;;20.50;88.90;;;;;;10506700;28;20441;-43
2022/10/26 06:43:57;;;;;;;1.83;0.90;;;20.40;88.40;;;;;;10518972;28;20040;-48
2022/10/26 06:49:13;;;;;;;1.45;0.90;;;20.30;88.40;;;;;;10516862;28;20097;-43
2022/10/26 06:54:23;;;;;;;2.53;0.90;;;19.90;88.30;;;;;;10527481;28;20040;-46
2022/10/26 06:59:36;;;;;;;2.20;0.80;;;20.30;88.40;;;;;;10528981;28;20044;-46
2022/10/26 07:04:38;;;;;;;2.03;0.93;;;20.30;88.40;;;;;;10526570;28;20067;-47
2022/10/26 07:09:41;;;;;;;1.55;0.80;;;21.50;88.80;;;;;;10525721;28;20044;-47
2022/10/26 07:14:43;;;;;;;2.65;0.98;;;21.30;88.80;;;;;;10522223;28;20425;-46
2022/10/26 07:19:45;;;;;;;2.13;0.88;;;20.00;99.40;;;;;;10530313;28;20075;-47
2022/10/26 07:24:50;;;;;;;3.70;0.80;;;20.60;91.40;;;;;;10527935;28;20051;-37
2022/10/26 07:29:52;;;;;;;2.88;0.85;;;20.40;88.20;;;;;;10528096;28;20040;-46
2022/10/26 07:34:53;;;;;;;1.25;0.80;;;20.30;88.50;;;;;;10537213;28;20044;-43
2022/10/26 07:39:58;;;;;;;4.65;1.50;;;20.30;88.60;;;;;;10541613;28;20085;-42
2022/10/26 07:45:00;;;;;;;1.88;1.10;;;20.40;87.90;;;;;;10535528;28;20051;-46
2022/10/26 07:50:02;;;;;;;1.50;0.85;;;20.20;88.80;;;;;;10557920;28;20093;-46
2022/10/26 07:55:06;;;;;;;6.00;1.10;;;20.40;87.90;;;;;;10532265;28;20045;-48
2022/10/26 08:00:09;;;;;;;1.92;0.80;;;20.20;88.50;;;;;;10526298;28;20047;-47
2022/10/26 08:05:11;;;;;;;2.00;0.77;;;20.40;89.20;;;;;;10519976;28;20071;-52
2022/10/26 08:10:15;;;;;;;4.50;0.93;;;20.40;88.80;;;;;;10528008;28;20473;-46
2022/10/26 08:15:17;;;;;;;1.38;0.73;;;20.50;88.80;;;;;;10530287;28;20042;-49
2022/10/26 08:20:20;;;;;;;1.50;0.80;;;20.40;90.00;;;;;;10548695;28;20127;-41
2022/10/26 08:25:23;;;;;;;7.93;1.55;;;20.20;90.60;;;;;;10532218;28;20385;-46
2022/10/26 08:30:25;;;;;;;6.90;1.50;;;19.90;90.90;;;;;;10533862;28;20091;-49
2022/10/26 08:35:27;;;;;;;3.20;1.10;;;20.20;92.80;;;;;;10532675;28;20452;-46
2022/10/26 08:40:31;;;;;;;5.53;1.98;;;20.00;91.40;;;;;;10525326;28;20508;-47
2022/10/26 08:45:37;;;;;;;4.53;1.20;;;19.80;91.90;;;;;;10531202;28;20075;-48
2022/10/26 08:50:45;;;;;;;2.58;1.20;;;18.80;94.10;;;;;;10527337;28;20048;-47
2022/10/26 08:55:54;;;;;;;2.25;1.27;;;19.00;93.60;;;;;;10533938;28;20078;-48
2022/10/26 09:00:56;;;;;;;5.85;1.50;;;18.90;94.60;;;;;;10545943;28;20127;-43
2022/10/26 09:06:12;;;;;;;12.65;1.88;;;19.20;95.40;;;;;;10533647;28;20500;-42
2022/10/26 09:11:28;;;;;;;4.07;1.95;;;18.70;97.50;;;;;;10525335;28;20893;-37
2022/10/26 09:16:39;;;;;;;6.38;1.48;;;18.80;95.60;;;;;;10537287;28;20120;-45
2022/10/26 09:21:49;;;;;;;4.93;2.00;;;18.40;97.00;;;;;;10489380;28;1193769;-43
2022/10/26 09:26:56;;;;;;;2.15;1.10;;;18.30;96.90;;;;;;10536517;28;20481;-42
2022/10/26 09:32:01;;;;;;;6.07;1.58;;;18.70;96.90;;;;;;10531090;28;20109;-45
2022/10/26 09:37:13;;;;;;;5.50;1.48;;;18.10;97.70;;;;;;10540684;28;20048;-40
2022/10/26 09:42:22;;;;;;;5.10;1.60;;;18.50;96.70;;;;;;10528393;28;20097;-42
2022/10/26 09:47:32;;;;;;;4.70;1.92;;;18.20;98.10;;;;;;10523253;28;20481;-47
2022/10/26 09:52:33;;;;;;;7.22;1.88;;;18.10;98.80;;;;;;10525382;28;20051;-45
2022/10/26 09:57:39;;;;;;;7.90;1.45;;;18.30;97.70;;;;;;10530026;28;20076;-43
2022/10/26 10:02:43;;;;;;;5.63;2.15;;;18.50;97.20;;;;;;10526935;28;20044;-46
2022/10/26 10:07:45;;;;;;;3.97;1.75;;;18.10;99.30;;;;;;10525332;28;20429;-43
2022/10/26 10:12:51;;;;;;;4.15;1.25;;;18.40;97.60;;;;;;10520954;28;20134;-43
2022/10/26 10:17:55;;;;;;;2.97;1.60;;;18.80;96.40;;;;;;10520171;28;20075;-45
2022/10/26 10:22:59;;;;;;;1.88;0.88;;;18.60;97.00;;;;;;10522834;28;20507;-46
2022/10/26 10:28:03;;;;;;;5.25;1.42;;;18.90;96.90;;;;;;10503346;28;20508;-47
2022/10/26 10:33:07;;;;;;;3.72;1.05;;;20.50;96.80;;;;;;10528847;28;20564;-45
2022/10/26 10:38:17;;;;;;;4.35;1.25;;;19.20;95.60;;;;;;10525079;28;20048;-43
2022/10/26 10:43:20;;;;;;;3.55;1.60;;;18.90;98.10;;;;;;10524411;28;20102;-45
2022/10/26 10:48:24;;;;;;;7.10;2.03;;;18.60;98.50;;;;;;10508462;28;20080;-42
2022/10/26 10:53:42;;;;;;;5.40;1.10;;;18.70;99.30;;;;;;10513311;28;20090;-47
2022/10/26 10:58:56;;;;;;;5.28;1.70;;;19.50;99.90;;;;;;10523917;28;20051;-43
2022/10/26 11:04:24;;;;;;;11.93;1.75;;;19.00;97.60;;;;;;10527552;28;20078;-47
2022/10/26 11:09:28;;;;;;;10.52;2.35;;;18.50;99.10;;;;;;10523092;28;20048;-45
2022/10/26 11:14:35;;;;;;;8.27;2.47;;;19.10;98.30;;;;;;10519616;28;20071;-46
2022/10/26 11:19:45;;;;;;;8.30;2.03;;;18.80;98.60;;;;;;10518127;28;20048;-40
2022/10/26 11:24:50;;;;;;;8.38;1.55;;;18.70;99.50;;;;;;10525066;28;20475;-44
2022/10/26 11:29:59;;;;;;;7.28;1.83;;;18.80;99.40;;;;;;10525913;28;20492;-46
2022/10/26 11:35:10;;;;;;;4.50;1.80;;;18.90;97.90;;;;;;10524402;28;20075;-46
2022/10/26 11:40:22;;;;;;;5.47;1.45;;;19.50;95.80;;;;;;10518287;28;20139;-48
2022/10/26 11:45:30;;;;;;;11.35;1.45;;;19.20;97.10;;;;;;10519406;28;20061;-45
2022/10/26 11:50:37;;;;;;;5.30;1.27;;;19.30;97.20;;;;;;10519185;28;20139;-46
2022/10/26 11:55:40;;;;;;;11.75;2.60;;;19.30;97.30;;;;;;10510256;28;20434;-38
2022/10/26 12:00:49;;;;;;;7.75;1.40;;;19.10;98.80;;;;;;10512943;28;20040;-46
2022/10/26 12:05:52;;;;;;;13.82;1.45;;;19.50;96.70;;;;;;10521692;28;20476;-45
2022/10/26 12:11:06;;;;;;;7.43;1.50;;;19.60;95.80;;;;;;10514915;28;20197;-49
2022/10/26 12:16:20;;;;;;;5.00;1.10;;;19.40;97.20;;;;;;10521150;28;20049;-43
2022/10/26 12:21:26;;;;;;;5.95;1.48;;;19.20;96.80;;;;;;10535070;28;20059;-48
2022/10/26 12:26:52;;;;;;;9.10;1.63;;;19.60;96.60;;;;;;10527313;28;20048;-49
2022/10/26 12:31:56;;;;;;;4.93;1.35;;;19.60;96.30;;;;;;10532402;28;20122;-42
2022/10/26 12:37:21;;;;;;;6.60;1.92;;;19.90;95.20;;;;;;10530934;28;20094;-46
2022/10/26 12:42:30;;;;;;;4.03;1.13;;;20.10;93.80;;;;;;10533749;28;20079;-47
2022/10/26 12:48:03;;;;;;;5.05;1.58;;;20.30;93.30;;;;;;10528490;28;20044;-49
2022/10/26 12:53:10;;;;;;;7.88;1.20;;;20.50;93.60;;;;;;10530640;28;20545;-48
2022/10/26 12:58:48;;;;;;;3.90;1.10;;;20.40;92.90;;;;;;10531967;28;20151;-41
2022/10/26 13:04:03;;;;;;;2.35;1.15;;;20.80;93.40;;;;;;10507389;28;20555;-43
2022/10/26 13:09:12;;;;;;;4.70;1.40;;;21.00;92.40;;;;;;10523897;28;20040;-45
2022/10/26 13:14:23;;;;;;;4.97;1.75;;;21.30;92.00;;;;;;10537254;28;20167;-39
2022/10/26 13:19:31;;;;;;;8.00;1.40;;;21.20;91.60;;;;;;10523264;28;20374;-46
2022/10/26 13:24:35;;;;;;;8.15;1.83;;;21.30;92.30;;;;;;10531909;28;20093;-46
2022/10/26 13:30:19;;;;;;;7.22;1.50;;;21.20;92.70;;;;;;10511083;28;20079;-43
2022/10/26 13:35:23;;;;;;;1.85;0.90;;;21.40;91.00;;;;;;10522621;28;20044;-46
2022/10/26 13:40:27;;;;;;;4.57;1.00;;;21.50;90.50;;;;;;10510249;28;20068;-43
2022/10/26 13:45:34;;;;;;;3.70;1.23;;;21.60;90.40;;;;;;10517734;28;20044;-42
2022/10/26 13:50:43;;;;;;;3.78;1.77;;;21.70;90.10;;;;;;10520460;28;20048;-45
2022/10/26 13:55:51;;;;;;;8.25;1.25;;;21.80;90.30;;;;;;10521122;28;20540;-43
2022/10/26 14:01:16;;;;;;;3.63;1.60;;;21.50;91.10;;;;;;10518780;28;20055;-43
2022/10/26 14:06:24;;;;;;;7.82;1.70;;;21.20;92.20;;;;;;10514618;28;20132;-43
2022/10/26 14:11:33;;;;;;;3.80;1.05;;;21.10;92.10;;;;;;10510707;28;20136;-46
2022/10/26 14:16:36;;;;;;;6.25;1.77;;;20.70;93.00;;;;;;10518270;28;20087;-47
2022/10/26 14:21:41;;;;;;;8.85;1.50;;;20.90;92.70;;;;;;10516614;28;20098;-47
2022/10/26 14:26:46;;;;;;;6.03;1.77;;;20.80;93.10;;;;;;10522333;28;20105;-44
2022/10/26 14:31:50;;;;;;;3.88;1.05;;;21.20;93.50;;;;;;10509994;28;20071;-49
2022/10/26 14:36:55;;;;;;;4.43;1.08;;;20.90;93.10;;;;;;10523738;28;20048;-44
2022/10/26 14:41:59;;;;;;;6.50;1.67;;;21.10;92.80;;;;;;10523362;28;20071;-45
2022/10/26 14:47:02;;;;;;;5.10;1.75;;;21.10;93.00;;;;;;10516270;28;20421;-45
2022/10/26 14:52:06;;;;;;;8.95;1.55;;;21.30;92.70;;;;;;10523318;28;20518;-46
2022/10/26 14:57:30;;;;;;;8.35;1.33;;;21.20;92.60;;;;;;10523913;28;20072;-43
2022/10/26 15:02:35;;;;;;;6.93;1.25;;;21.20;92.80;;;;;;10515215;28;20079;-42
2022/10/26 15:07:39;;;;;;;5.18;1.30;;;21.10;92.50;;;;;;10528780;28;20098;-40
2022/10/26 15:12:41;;;;;;;5.82;1.40;;;21.60;93.30;;;;;;10527205;28;20040;-41
2022/10/26 15:17:55;;;;;;;7.43;1.38;;;21.70;93.20;;;;;;10520674;28;20060;-43
2022/10/26 15:22:59;;;;;;;3.22;0.90;;;20.90;93.10;;;;;;10515967;28;20059;-45
2022/10/26 15:28:10;;;;;;;7.72;1.08;;;20.30;93.70;;;;;;10526073;28;20831;-39
2022/10/26 15:33:21;;;;;;;8.63;2.00;;;19.20;94.90;;;;;;10523606;28;20504;-43
2022/10/26 15:38:22;;;;;;;7.22;1.13;;;20.50;94.10;;;;;;10512955;28;20140;-43
2022/10/26 15:43:24;;;;;;;9.43;1.65;;;20.50;94.10;;;;;;10519280;28;20066;-41
2022/10/26 15:48:31;;;;;;;9.57;1.40;;;20.20;94.50;;;;;;10536113;28;20075;-44
2022/10/26 15:53:33;;;;;;;5.90;1.60;;;20.70;95.60;;;;;;10524027;28;20134;-42
2022/10/26 15:58:34;;;;;;;8.50;1.60;;;20.10;95.30;;;;;;10533349;28;20051;-44
2022/10/26 16:03:38;;;;;;;6.80;1.10;;;21.20;96.30;;;;;;10533186;28;20068;-42
2022/10/26 16:08:39;;;;;;;10.45;1.40;;;19.20;95.50;;;;;;10533164;28;20071;-41
2022/10/26 16:13:41;;;;;;;8.27;1.48;;;19.60;96.50;;;;;;10531984;28;20991;-41
2022/10/26 16:18:45;;;;;;;13.32;1.83;;;19.60;96.70;;;;;;10531797;28;20157;-40
2022/10/26 16:23:48;;;;;;;6.93;1.05;;;19.30;97.60;;;;;;10530474;28;20056;-46
2022/10/26 16:28:51;;;;;;;6.72;1.27;;;19.70;98.50;;;;;;10519500;28;20072;-41
2022/10/26 16:33:54;;;;;;;12.88;1.95;;;19.20;98.50;;;;;;10509438;28;20080;-41
2022/10/26 16:38:56;;;;;;;11.70;1.40;;;18.90;99.00;;;;;;10524146;28;20092;-47
2022/10/26 16:43:58;;;;;;;15.38;2.17;;;20.40;96.60;;;;;;10527900;28;20056;-42
2022/10/26 16:49:01;;;;;;;16.00;2.50;;;19.60;96.30;;;;;;10525825;28;20071;-44
2022/10/26 16:54:03;;;;;;;10.48;1.33;;;19.40;96.80;;;;;;10532068;28;20056;-44
2022/10/26 16:59:05;;;;;;;10.30;1.85;;;20.10;94.60;;;;;;10532831;28;20129;-41
2022/10/26 17:04:09;;;;;;;5.30;1.40;;;20.20;95.30;;;;;;10531414;28;20109;-42
2022/10/26 17:09:11;;;;;;;13.95;1.52;;;20.80;93.40;;;;;;10527311;28;20072;-43
2022/10/26 17:14:13;;;;;;;6.03;1.33;;;20.20;95.00;;;;;;10523173;28;20044;-44
2022/10/26 17:19:17;;;;;;;14.55;1.75;;;19.80;96.20;;;;;;10524052;28;20094;-38
2022/10/26 17:24:18;;;;;;;8.60;1.83;;;18.80;98.40;;;;;;10518352;28;20494;-44
2022/10/26 17:29:20;;;;;;;12.18;1.50;;;18.80;98.90;;;;;;10524301;28;20073;-41
2022/10/26 17:34:24;;;;;;;6.68;1.67;;;19.00;98.20;;;;;;10530312;28;20059;-41
2022/10/26 17:39:26;;;;;;;14.68;1.83;;;19.70;96.80;;;;;;10527450;28;20052;-42
2022/10/26 17:44:28;;;;;;;18.17;1.83;;;18.20;99.10;;;;;;10530921;28;20047;-44
2022/10/26 17:49:31;;;;;;;6.60;1.30;;;18.50;99.90;;;;;;10505076;28;20062;-40
2022/10/26 17:54:33;;;;;;;8.02;1.10;;;18.70;99.50;;;;;;10529133;28;20052;-44
2022/10/26 17:59:35;;;;;;;5.68;1.02;;;18.70;99.40;;;;;;10529810;28;20140;-43
2022/10/26 18:04:38;;;;;;;3.37;0.93;;;18.80;99.40;;;;;;10530624;28;20044;-34
2022/10/26 18:09:40;;;;;;;6.50;1.27;;;18.60;99.90;;;;;;10520038;28;21001;-40
2022/10/26 18:14:44;;;;;;;8.38;1.67;;;18.70;99.90;;;;;;10518986;28;20076;-40
2022/10/26 18:19:47;;;;;;;8.73;1.55;;;18.70;99.90;;;;;;10519526;28;20500;-41
2022/10/26 18:24:49;;;;;;;7.85;1.70;;;18.10;99.90;;;;;;10514049;28;20131;-38
2022/10/26 18:29:54;;;;;;;4.65;1.30;;;18.20;99.00;;;;;;10527734;28;20127;-39
2022/10/26 18:34:59;;;;;;;11.27;2.33;;;17.90;99.90;;;;;;10520257;28;20382;-39
2022/10/26 18:40:02;;;;;;;11.55;1.65;;;18.20;99.50;;;;;;10530308;28;20059;-41
2022/10/26 18:45:05;;;;;;;;;;;18.60;99.50;;;;;;10522032;28;20052;-38
2022/10/26 18:50:09;;;;;;;7.90;1.70;;;19.40;96.20;;;;;;10531731;28;19939;-39
2022/10/26 18:55:11;;;;;;;9.23;1.83;;;18.90;97.10;;;;;;10512646;28;20051;-41
2022/10/26 19:00:14;;;;;;;9.07;1.83;;;19.00;97.30;;;;;;10525072;28;20040;-39
2022/10/26 19:05:17;;;;;;;7.38;1.60;;;18.90;97.00;;;;;;10526016;28;20165;-48
2022/10/26 19:10:19;;;;;;;13.85;2.10;;;18.40;99.90;;;;;;10521657;28;20453;-40
2022/10/26 19:15:21;;;;;;;5.75;1.13;;;18.40;99.60;;;;;;10519461;28;20485;-41
2022/10/26 19:20:24;;;;;;;8.60;1.48;;;20.20;99.60;;;;;;10524689;28;20067;-41
2022/10/26 19:25:26;;;;;;;6.63;1.40;;;19.60;96.40;;;;;;10537330;28;20123;-40
2022/10/26 19:30:28;;;;;;;3.72;1.00;;;19.80;96.90;;;;;;10535309;28;20101;-42
2022/10/26 19:35:32;;;;;;;4.05;0.80;;;19.60;97.40;;;;;;10535709;28;20445;-38
2022/10/26 19:40:34;;;;;;;7.70;0.95;;;20.30;95.90;;;;;;10534534;28;20079;-40
2022/10/26 19:45:36;;;;;;;5.13;1.70;;;20.40;93.60;;;;;;10535949;28;20469;-40
2022/10/26 19:50:40;;;;;;;4.38;0.68;;;21.10;92.80;;;;;;10536823;28;20048;-42
2022/10/26 19:55:42;;;;;;;5.95;1.38;;;21.30;92.30;;;;;;10535422;28;20480;-39
2022/10/26 20:00:44;;;;;;;4.68;0.90;;;21.30;92.30;;;;;;10534641;28;20083;-41
2022/10/26 20:05:47;;;;;;;5.55;1.20;;;21.00;93.20;;;;;;10517679;28;20043;-41
2022/10/26 20:10:49;;;;;;;6.38;1.17;;;21.00;92.80;;;;;;10527205;28;20048;-38
2022/10/26 20:15:52;;;;;;;5.28;1.02;;;21.20;92.30;;;;;;10524465;28;20052;-40
2022/10/26 20:20:55;;;;;;;3.20;1.23;;;22.00;92.30;;;;;;10521644;28;20555;-40
2022/10/26 20:25:59;;;;;;;5.28;1.15;;;21.40;91.60;;;;;;10522431;28;20056;-44
2022/10/26 20:31:01;;;;;;;5.20;1.10;;;20.80;93.00;;;;;;10532068;28;20280;-39
2022/10/26 20:36:04;;;;;;;4.03;1.20;;;20.90;92.90;;;;;;10512591;28;20205;-40
2022/10/26 20:41:09;;;;;;;6.03;1.08;;;21.20;92.20;;;;;;10529822;28;20067;-42
2022/10/26 20:46:17;;;;;;;7.63;1.55;;;21.40;91.50;;;;;;10505485;28;20105;-47
2022/10/26 20:51:24;;;;;;;10.27;1.85;;;21.40;91.10;;;;;;10504456;28;20048;-44
2022/10/26 20:56:27;;;;;;;5.70;1.20;;;21.50;91.30;;;;;;10517580;28;20485;-40
2022/10/26 21:01:30;;;;;;;5.55;1.30;;;21.30;91.50;;;;;;10528362;28;20059;-45
2022/10/26 21:06:38;;;;;;;6.18;1.17;;;21.30;91.60;;;;;;10522432;28;20060;-42
2022/10/26 21:11:40;;;;;;;7.85;1.38;;;21.10;92.10;;;;;;10526711;28;20087;-42
2022/10/26 21:16:42;;;;;;;9.88;1.80;;;21.30;91.50;;;;;;10525245;28;20154;-41
2022/10/26 21:21:46;;;;;;;5.18;1.77;;;21.00;90.90;;;;;;10527633;28;20048;-39
2022/10/26 21:26:48;;;;;;;7.28;1.17;;;21.40;90.90;;;;;;10533772;28;20393;-41
2022/10/26 21:31:49;;;;;;;;;;;21.40;91.10;;;;;;10529906;28;20039;-42
2022/10/26 21:36:53;;;;;;;8.90;1.60;;;21.40;90.90;;;;;;10524358;28;19942;-42
2022/10/26 21:41:55;;;;;;;9.52;1.20;;;21.40;91.00;;;;;;10520075;28;20534;-41
2022/10/26 21:46:56;;;;;;;8.77;1.38;;;21.20;91.60;;;;;;10513771;28;20044;-41
2022/10/26 21:52:00;;;;;;;5.50;1.83;;;20.70;92.90;;;;;;10541219;28;20075;-42
2022/10/26 21:57:02;;;;;;;15.13;1.58;;;20.10;94.80;;;;;;10536244;28;20135;-43
2022/10/26 22:02:03;;;;;;;7.78;1.30;;;20.30;93.80;;;;;;10528981;28;20863;-41
2022/10/26 22:07:07;;;;;;;10.68;1.77;;;20.50;93.20;;;;;;10534709;28;20049;-37
2022/10/26 22:12:08;;;;;;;7.55;1.60;;;20.40;94.10;;;;;;10520390;28;20670;-37
2022/10/26 22:17:11;;;;;;;5.25;1.17;;;20.90;92.20;;;;;;10542265;28;20558;-40
2022/10/26 22:22:14;;;;;;;6.63;1.15;;;21.30;91.20;;;;;;10542387;28;20083;-41
2022/10/26 22:27:16;;;;;;;5.38;1.70;;;21.40;90.70;;;;;;10525219;28;20048;-39
2022/10/26 22:32:18;;;;;;;7.15;1.17;;;21.00;90.40;;;;;;10515901;28;20068;-39
2022/10/26 22:37:21;;;;;;;5.68;1.08;;;21.00;90.60;;;;;;10535069;28;20484;-41
2022/10/26 22:42:23;;;;;;;9.68;1.98;;;21.20;90.60;;;;;;10554863;28;20055;-37
2022/10/26 22:47:25;;;;;;;8.38;1.35;;;21.30;91.30;;;;;;10529421;28;20062;-38
2022/10/26 22:52:28;;;;;;;9.90;1.60;;;21.20;91.30;;;;;;10527407;28;20458;-39
2022/10/26 22:57:30;;;;;;;6.93;1.30;;;21.30;90.70;;;;;;10519903;28;20506;-41
2022/10/26 23:02:32;;;;;;;9.65;2.67;;;20.80;90.30;;;;;;10527808;28;20457;-36
2022/10/26 23:07:35;;;;;;;9.20;2.28;;;21.60;90.40;;;;;;10522640;28;20181;-39
2022/10/26 23:12:37;;;;;;;6.35;1.27;;;22.10;90.50;;;;;;10530567;28;20075;-40
2022/10/26 23:17:39;;;;;;;9.30;1.77;;;21.40;90.20;;;;;;10531484;28;20083;-43
2022/10/26 23:22:42;;;;;;;4.68;1.23;;;21.50;90.30;;;;;;10525788;28;20056;-41
2022/10/26 23:27:44;;;;;;;4.15;1.13;;;22.40;90.50;;;;;;10533628;28;20086;-41
2022/10/26 23:32:46;;;;;;;4.47;1.55;;;22.80;90.60;;;;;;10515804;28;20049;-40
2022/10/26 23:37:49;;;;;;;5.00;1.08;;;21.40;90.30;;;;;;10512880;28;20148;-39
2022/10/26 23:42:51;;;;;;;3.10;0.90;;;22.00;90.90;;;;;;10525901;28;20071;-42
2022/10/26 23:47:52;;;;;;;8.50;1.77;;;21.40;90.30;;;;;;10526673;28;20090;-43
2022/10/26 23:52:56;;;;;;;3.63;1.30;;;23.10;90.70;;;;;;10506959;28;20451;-35
2022/10/26 23:57:57;;;;;;;5.28;1.10;;;21.10;90.40;;;;;;10525846;28;20143;-42
